createdAt,value
2022-10-02T00:01:54.323Z,12.10
2022-10-02T00:04:28.090Z,12.10
2022-10-02T00:07:02.419Z,12.10
2022-10-02T00:09:34.900Z,12.10
2022-10-02T00:12:06.237Z,12.00
2022-10-02T00:14:39.367Z,12.10
2022-10-02T00:17:11.525Z,12.10
2022-10-02T00:19:39.539Z,12.10
2022-10-02T00:22:26.703Z,12.10
2022-10-02T00:25:02.587Z,12.10
2022-10-02T00:27:43.244Z,12.10
2022-10-02T00:30:15.549Z,12.10
2022-10-02T00:32:57.143Z,12.10
2022-10-02T00:35:56.933Z,12.10
2022-10-02T00:38:39.637Z,12.10
2022-10-02T00:41:23.112Z,12.10
2022-10-02T00:44:11.429Z,12.10
2022-10-02T00:46:46.585Z,12.10
2022-10-02T00:49:33.425Z,12.10
2022-10-02T00:52:15.588Z,12.10
2022-10-02T00:55:04.352Z,12.10
2022-10-02T00:57:46.330Z,12.10
2022-10-02T01:00:18.434Z,12.10
2022-10-02T01:03:01.673Z,12.10
2022-10-02T01:05:30.211Z,12.10
2022-10-02T01:07:58.793Z,12.10
2022-10-02T01:10:28.271Z,12.20
2022-10-02T01:12:58.180Z,12.10
2022-10-02T01:15:32.893Z,12.10
2022-10-02T01:18:03.201Z,12.10
2022-10-02T01:20:36.303Z,12.10
2022-10-02T01:23:12.426Z,12.10
2022-10-02T01:25:41.880Z,12.10
2022-10-02T01:28:11.502Z,12.10
2022-10-02T01:30:42.610Z,12.10
2022-10-02T01:33:12.113Z,12.20
2022-10-02T01:35:41.070Z,12.10
2022-10-02T01:38:11.854Z,12.20
2022-10-02T01:40:42.248Z,12.20
2022-10-02T01:43:15.079Z,12.20
2022-10-02T01:46:12.092Z,12.20
2022-10-02T01:48:46.843Z,12.20
2022-10-02T01:51:35.608Z,12.20
2022-10-02T01:54:17.055Z,12.20
2022-10-02T01:57:02.622Z,12.20
2022-10-02T01:59:44.043Z,12.20
2022-10-02T02:02:19.556Z,12.10
2022-10-02T02:04:56.107Z,12.20
2022-10-02T02:07:35.419Z,12.20
2022-10-02T02:10:14.564Z,12.10
2022-10-02T02:12:49.982Z,12.20
2022-10-02T02:15:26.339Z,12.20
2022-10-02T02:17:59.327Z,12.10
2022-10-02T02:20:31.236Z,12.10
2022-10-02T02:23:05.300Z,12.10
2022-10-02T02:25:38.537Z,12.10
2022-10-02T02:28:12.460Z,12.10
2022-10-02T02:30:44.072Z,12.10
2022-10-02T02:33:15.936Z,12.10
2022-10-02T02:35:47.361Z,12.10
2022-10-02T02:38:19.137Z,12.10
2022-10-02T02:40:48.524Z,12.10
2022-10-02T02:43:22.723Z,12.10
2022-10-02T02:45:56.412Z,12.10
2022-10-02T02:48:29.362Z,12.10
2022-10-02T02:51:00.602Z,12.00
2022-10-02T02:53:34.505Z,12.00
2022-10-02T02:56:06.722Z,12.00
2022-10-02T02:58:40.935Z,12.00
2022-10-02T03:01:09.119Z,12.00
2022-10-02T03:03:37.211Z,12.00
2022-10-02T03:06:08.783Z,12.00
2022-10-02T03:08:38.102Z,12.00
2022-10-02T03:11:17.291Z,12.00
2022-10-02T03:13:58.013Z,11.90
2022-10-02T03:16:38.225Z,12.00
2022-10-02T03:19:24.105Z,11.90
2022-10-02T03:22:02.115Z,11.90
2022-10-02T03:24:36.465Z,11.90
2022-10-02T03:27:10.004Z,11.90
2022-10-02T03:29:45.598Z,11.90
2022-10-02T03:32:16.220Z,11.90
2022-10-02T03:34:44.875Z,11.90
2022-10-02T03:37:13.174Z,11.90
2022-10-02T03:39:44.204Z,11.90
2022-10-02T03:42:14.897Z,11.90
2022-10-02T03:44:44.823Z,11.90
2022-10-02T03:47:12.778Z,11.90
2022-10-02T03:49:40.980Z,11.90
2022-10-02T03:52:14.600Z,11.90
2022-10-02T03:54:42.573Z,11.90
2022-10-02T03:57:16.230Z,12.00
2022-10-02T03:59:51.931Z,12.00
2022-10-02T04:02:28.067Z,11.90
2022-10-02T04:05:01.865Z,12.00
2022-10-02T04:07:35.016Z,12.00
2022-10-02T04:10:15.877Z,12.00
2022-10-02T04:12:49.491Z,11.90
2022-10-02T04:15:24.358Z,12.00
2022-10-02T04:17:59.054Z,11.90
2022-10-02T04:20:34.288Z,12.00
2022-10-02T04:23:07.656Z,12.00
2022-10-02T04:25:40.893Z,12.00
2022-10-02T04:28:15.120Z,12.00
2022-10-02T04:30:44.558Z,12.00
2022-10-02T04:33:14.901Z,12.00
2022-10-02T04:35:49.912Z,12.00
2022-10-02T04:38:30.588Z,12.00
2022-10-02T04:41:19.064Z,12.00
2022-10-02T04:44:00.189Z,12.00
2022-10-02T04:46:50.092Z,12.00
2022-10-02T04:49:38.128Z,12.00
2022-10-02T04:52:36.064Z,12.00
2022-10-02T04:55:18.717Z,12.00
2022-10-02T04:58:13.560Z,12.00
2022-10-02T05:00:48.872Z,12.00
2022-10-02T05:03:33.691Z,12.00
2022-10-02T05:06:20.266Z,12.00
2022-10-02T05:09:00.651Z,12.00
2022-10-02T05:11:48.659Z,12.00
2022-10-02T05:14:36.909Z,12.00
2022-10-02T05:17:17.590Z,12.00
2022-10-02T05:20:03.378Z,12.00
2022-10-02T05:23:02.179Z,12.00
2022-10-02T05:26:05.157Z,12.10
2022-10-02T05:28:54.461Z,12.10
2022-10-02T05:31:31.987Z,12.10
2022-10-02T05:34:17.967Z,12.10
2022-10-02T05:37:13.205Z,12.10
2022-10-02T05:39:49.816Z,12.10
2022-10-02T05:42:26.547Z,12.10
2022-10-02T05:45:02.822Z,12.10
2022-10-02T05:47:32.946Z,12.10
2022-10-02T05:50:04.655Z,12.10
2022-10-02T05:52:41.563Z,12.10
2022-10-02T05:55:19.331Z,12.10
2022-10-02T05:57:53.458Z,12.10
2022-10-02T06:00:29.694Z,12.10
2022-10-02T06:03:09.344Z,12.10
2022-10-02T06:05:46.463Z,12.10
2022-10-02T06:08:19.002Z,12.10
2022-10-02T06:10:51.748Z,12.20
2022-10-02T06:13:24.861Z,12.10
2022-10-02T06:15:58.693Z,12.20
2022-10-02T06:18:31.434Z,12.20
2022-10-02T06:21:04.386Z,12.20
2022-10-02T06:23:39.368Z,12.20
2022-10-02T06:26:12.685Z,12.20
2022-10-02T06:28:45.004Z,12.20
2022-10-02T06:31:19.463Z,12.20
2022-10-02T06:33:47.563Z,12.20
2022-10-02T06:36:41.698Z,12.20
2022-10-02T06:39:28.468Z,12.20
2022-10-02T06:42:07.162Z,12.30
2022-10-02T06:44:41.859Z,12.30
2022-10-02T06:47:22.191Z,12.30
2022-10-02T06:50:04.314Z,12.30
2022-10-02T06:52:40.388Z,12.30
2022-10-02T06:55:35.389Z,12.30
2022-10-02T06:58:18.329Z,12.30
2022-10-02T07:00:53.134Z,12.30
2022-10-02T07:03:34.895Z,12.30
2022-10-02T07:06:21.903Z,12.40
2022-10-02T07:09:04.179Z,12.40
2022-10-02T07:11:46.030Z,12.50
2022-10-02T07:14:31.333Z,12.50
2022-10-02T07:17:29.638Z,12.50
2022-10-02T07:20:30.562Z,12.50
2022-10-02T07:23:19.226Z,12.60
2022-10-02T07:26:03.845Z,12.60
2022-10-02T07:28:42.428Z,12.60
2022-10-02T07:31:21.502Z,12.60
2022-10-02T07:33:59.967Z,12.60
2022-10-02T07:36:39.256Z,12.60
2022-10-02T07:39:21.214Z,12.60
2022-10-02T07:42:07.354Z,12.70
2022-10-02T07:44:53.791Z,12.70
2022-10-02T07:47:39.146Z,12.70
2022-10-02T07:50:13.911Z,12.70
2022-10-02T07:52:51.301Z,12.80
2022-10-02T07:55:21.406Z,12.80
2022-10-02T07:57:57.581Z,12.80
2022-10-02T08:00:29.965Z,12.80
2022-10-02T08:03:00.774Z,12.90
2022-10-02T08:05:32.226Z,12.90
2022-10-02T08:08:04.452Z,13.00
2022-10-02T08:10:38.157Z,13.00
2022-10-02T08:13:14.335Z,13.00
2022-10-02T08:15:47.283Z,13.10
2022-10-02T08:18:35.643Z,13.10
2022-10-02T08:21:06.528Z,13.20
2022-10-02T08:23:40.535Z,13.30
2022-10-02T08:26:12.213Z,13.30
2022-10-02T08:28:46.036Z,13.30
2022-10-02T08:31:16.021Z,13.30
2022-10-02T08:33:44.383Z,13.30
2022-10-02T08:36:39.062Z,13.30
2022-10-02T08:39:26.601Z,13.30
2022-10-02T08:42:30.211Z,13.30
2022-10-02T08:45:24.536Z,13.30
2022-10-02T08:48:27.455Z,13.40
2022-10-02T08:51:31.738Z,13.40
2022-10-02T08:54:26.677Z,13.40
2022-10-02T08:57:13.109Z,13.50
2022-10-02T09:00:09.442Z,13.50
2022-10-02T09:03:20.734Z,13.50
2022-10-02T09:06:38.685Z,13.50
2022-10-02T09:09:34.199Z,13.50
2022-10-02T09:12:40.097Z,13.50
2022-10-02T09:15:16.034Z,13.50
2022-10-02T09:18:08.045Z,13.50
2022-10-02T09:21:18.442Z,13.60
2022-10-02T09:24:26.283Z,13.50
2022-10-02T09:27:39.126Z,13.50
2022-10-02T09:30:21.046Z,13.50
2022-10-02T09:33:17.028Z,13.50
2022-10-02T09:36:31.137Z,13.50
2022-10-02T09:39:31.254Z,13.50
2022-10-02T09:42:28.201Z,13.50
2022-10-02T09:45:28.528Z,13.50
2022-10-02T09:48:22.447Z,13.50
2022-10-02T09:51:42.446Z,13.50
2022-10-02T09:54:47.140Z,13.50
2022-10-02T09:57:49.373Z,13.60
2022-10-02T10:00:21.875Z,13.50
2022-10-02T10:03:23.952Z,13.50
2022-10-02T10:06:20.935Z,13.50
2022-10-02T10:09:20.398Z,13.50
2022-10-02T10:12:14.986Z,13.50
2022-10-02T10:15:15.635Z,13.50
2022-10-02T10:18:20.784Z,13.50
2022-10-02T10:21:11.438Z,13.50
2022-10-02T10:24:09.720Z,13.50
2022-10-02T10:27:11.588Z,13.40
2022-10-02T10:30:14.770Z,13.40
2022-10-02T10:33:34.666Z,13.30
2022-10-02T10:37:02.120Z,13.30
2022-10-02T10:39:58.680Z,13.30
2022-10-02T10:43:07.465Z,13.20
2022-10-02T10:46:02.874Z,13.30
2022-10-02T10:48:49.222Z,13.30
2022-10-02T10:51:32.527Z,13.20
2022-10-02T10:54:48.611Z,13.20
2022-10-02T10:57:31.006Z,13.20
2022-10-02T11:00:25.889Z,13.20
2022-10-02T11:03:00.452Z,13.30
2022-10-02T11:06:15.118Z,13.30
2022-10-02T11:09:31.759Z,13.30
2022-10-02T11:12:39.155Z,13.20
2022-10-02T11:15:22.844Z,13.10
2022-10-02T11:18:14.634Z,13.10
2022-10-02T11:21:10.506Z,13.00
2022-10-02T11:24:24.425Z,13.00
2022-10-02T11:27:18.739Z,13.00
2022-10-02T11:30:05.594Z,13.00
2022-10-02T11:32:59.153Z,12.90
2022-10-02T11:35:48.570Z,13.00
2022-10-02T11:38:38.521Z,13.00
2022-10-02T11:41:21.848Z,12.90
2022-10-02T11:44:06.206Z,12.90
2022-10-02T11:46:49.294Z,12.90
2022-10-02T11:49:59.070Z,12.90
2022-10-02T11:52:58.094Z,12.80
2022-10-02T11:55:38.910Z,12.80
2022-10-02T11:58:17.189Z,12.80
2022-10-02T12:01:09.561Z,12.80
2022-10-02T12:03:51.797Z,12.80
2022-10-02T12:06:28.851Z,12.70
2022-10-02T12:09:07.328Z,12.70
2022-10-02T12:11:42.144Z,12.70
2022-10-02T12:14:30.541Z,12.80
2022-10-02T12:17:28.150Z,12.90
2022-10-02T12:20:26.415Z,12.80
2022-10-02T12:23:26.185Z,12.90
2022-10-02T12:26:22.571Z,12.90
2022-10-02T12:28:56.884Z,12.90
2022-10-02T12:31:33.159Z,12.90
2022-10-02T12:34:09.693Z,13.00
2022-10-02T12:36:56.512Z,12.90
2022-10-02T12:39:42.644Z,12.90
2022-10-02T12:42:51.718Z,12.90
2022-10-02T12:45:46.485Z,12.80
2022-10-02T12:48:29.526Z,12.80
2022-10-02T12:51:35.854Z,12.80
2022-10-02T12:54:35.671Z,12.80
2022-10-02T12:57:41.828Z,12.80
2022-10-02T13:00:16.391Z,12.80
2022-10-02T13:03:21.472Z,12.90
2022-10-02T13:06:38.034Z,13.00
2022-10-02T13:09:17.010Z,13.00
2022-10-02T13:11:58.679Z,12.90
2022-10-02T13:14:40.049Z,12.90
2022-10-02T13:17:27.118Z,12.90
2022-10-02T13:20:04.319Z,12.90
2022-10-02T13:22:41.559Z,12.90
2022-10-02T13:25:53.384Z,12.90
2022-10-02T13:28:58.545Z,12.90
2022-10-02T13:31:43.643Z,12.90
2022-10-02T13:34:28.682Z,12.90
2022-10-02T13:37:19.084Z,12.80
2022-10-02T13:43:22.931Z,12.90
2022-10-02T13:46:01.592Z,12.90
2022-10-02T13:48:40.582Z,12.90
2022-10-02T13:51:19.666Z,12.90
2022-10-02T13:54:14.686Z,12.90
2022-10-02T13:56:52.369Z,12.90
2022-10-02T13:59:38.804Z,13.00
2022-10-02T14:02:17.997Z,13.00
2022-10-02T14:04:56.679Z,13.00
2022-10-02T14:07:43.098Z,13.00
2022-10-02T14:10:21.336Z,13.00
2022-10-02T14:13:04.143Z,13.10
2022-10-02T14:15:43.926Z,13.10
2022-10-02T14:18:35.331Z,13.10
2022-10-02T14:21:13.069Z,13.10
2022-10-02T14:24:09.043Z,13.10
2022-10-02T14:26:54.881Z,13.10
2022-10-02T14:29:38.222Z,13.00
2022-10-02T14:32:25.267Z,13.00
2022-10-02T14:35:21.718Z,13.10
2022-10-02T14:38:21.842Z,13.10
2022-10-02T14:40:56.060Z,13.00
2022-10-02T14:43:44.251Z,13.10
2022-10-02T14:46:38.072Z,13.10
2022-10-02T14:49:20.877Z,13.10
2022-10-02T14:52:07.611Z,13.10
2022-10-02T14:54:55.005Z,13.10
2022-10-02T14:57:43.534Z,13.00
2022-10-02T15:00:19.376Z,13.10
2022-10-02T15:03:11.641Z,13.10
2022-10-02T15:06:09.461Z,13.00
2022-10-02T15:08:42.177Z,13.00
2022-10-02T15:11:25.549Z,13.00
2022-10-02T15:14:01.330Z,12.90
2022-10-02T15:16:53.766Z,13.00
2022-10-02T15:19:26.931Z,12.90
2022-10-02T15:22:00.713Z,12.90
2022-10-02T15:24:32.438Z,13.00
2022-10-02T15:27:14.315Z,13.00
2022-10-02T15:29:56.148Z,13.00
2022-10-02T15:32:57.001Z,13.00
2022-10-02T15:35:39.614Z,13.00
2022-10-02T15:38:29.323Z,13.00
2022-10-02T15:41:19.164Z,13.00
2022-10-02T15:44:03.151Z,12.90
2022-10-02T15:46:43.464Z,12.90
2022-10-02T15:49:15.992Z,12.90
2022-10-02T15:52:01.886Z,12.90
2022-10-02T15:54:39.922Z,12.90
2022-10-02T15:57:29.663Z,12.90
2022-10-02T16:00:11.506Z,12.90
2022-10-02T16:03:02.904Z,12.90
2022-10-02T16:05:57.917Z,12.90
2022-10-02T16:08:47.352Z,12.90
2022-10-02T16:11:54.191Z,12.90
2022-10-02T16:14:34.812Z,12.90
2022-10-02T16:17:37.091Z,12.90
2022-10-02T16:20:28.216Z,12.90
2022-10-02T16:23:10.980Z,12.90
2022-10-02T16:25:56.973Z,12.80
2022-10-02T16:28:39.372Z,12.80
2022-10-02T16:31:22.579Z,12.80
2022-10-02T16:34:00.050Z,12.80
2022-10-02T16:36:37.415Z,12.80
2022-10-02T16:39:21.772Z,12.80
2022-10-02T16:42:02.933Z,12.70
2022-10-02T16:44:54.618Z,12.70
2022-10-02T16:47:30.347Z,12.70
2022-10-02T16:50:03.903Z,12.70
2022-10-02T16:52:42.343Z,12.70
2022-10-02T16:55:21.809Z,12.70
2022-10-02T16:58:03.587Z,12.70
2022-10-02T17:00:38.259Z,12.70
2022-10-02T17:03:15.175Z,12.70
2022-10-02T17:05:50.011Z,12.60
2022-10-02T17:08:29.451Z,12.70
2022-10-02T17:11:15.543Z,12.60
2022-10-02T17:13:58.804Z,12.60
2022-10-02T17:16:30.420Z,12.60
2022-10-02T17:19:04.274Z,12.60
2022-10-02T17:21:44.507Z,12.60
2022-10-02T17:24:34.530Z,12.60
2022-10-02T17:27:13.119Z,12.60
2022-10-02T17:29:49.797Z,12.60
2022-10-02T17:32:35.619Z,12.60
2022-10-02T17:35:05.306Z,12.60
2022-10-02T17:37:58.141Z,12.60
2022-10-02T17:40:30.371Z,12.60
2022-10-02T17:43:04.826Z,12.50
2022-10-02T17:45:37.229Z,12.60
2022-10-02T17:48:28.002Z,12.60
2022-10-02T17:51:47.045Z,12.60
2022-10-02T17:54:51.001Z,12.60
2022-10-02T17:57:47.511Z,12.60
2022-10-02T18:00:20.572Z,12.60
2022-10-02T18:03:10.007Z,12.60
2022-10-02T18:05:51.657Z,12.60
2022-10-02T18:08:38.523Z,12.60
2022-10-02T18:11:09.710Z,12.60
2022-10-02T18:13:57.292Z,12.60
2022-10-02T18:16:32.396Z,12.60
2022-10-02T18:19:23.741Z,12.60
2022-10-02T18:22:18.995Z,12.60
2022-10-02T18:25:22.370Z,12.60
2022-10-02T18:28:14.915Z,12.50
2022-10-02T18:30:53.630Z,12.60
2022-10-02T18:33:42.295Z,12.50
2022-10-02T18:36:23.902Z,12.50
2022-10-02T18:39:00.241Z,12.50
2022-10-02T18:41:53.771Z,12.60
2022-10-02T18:44:47.726Z,12.60
2022-10-02T18:47:34.078Z,12.50
2022-10-02T18:50:20.828Z,12.50
2022-10-02T18:53:02.595Z,12.50
2022-10-02T18:56:02.970Z,12.50
2022-10-02T18:58:44.673Z,12.50
2022-10-02T19:01:44.787Z,12.50
2022-10-02T19:04:32.559Z,12.50
2022-10-02T19:07:07.081Z,12.50
2022-10-02T19:09:35.395Z,12.50
2022-10-02T19:12:15.435Z,12.50
2022-10-02T19:14:46.322Z,12.40
2022-10-02T19:17:16.834Z,12.50
2022-10-02T19:19:46.199Z,12.50
2022-10-02T19:22:21.460Z,12.50
2022-10-02T19:24:52.999Z,12.50
2022-10-02T19:27:26.585Z,12.40
2022-10-02T19:29:57.778Z,12.50
2022-10-02T19:32:30.068Z,12.50
2022-10-02T19:35:06.562Z,12.40
2022-10-02T19:37:41.425Z,12.40
2022-10-02T19:40:17.022Z,12.40
2022-10-02T19:42:49.287Z,12.40
2022-10-02T19:45:26.420Z,12.40
2022-10-02T19:47:59.923Z,12.40
2022-10-02T19:50:40.403Z,12.30
2022-10-02T19:53:17.619Z,12.30
2022-10-02T19:55:48.149Z,12.40
2022-10-02T19:58:21.221Z,12.30
2022-10-02T20:00:51.777Z,12.40
2022-10-02T20:03:22.628Z,12.30
2022-10-02T20:05:54.896Z,12.40
2022-10-02T20:08:26.836Z,12.30
2022-10-02T20:11:02.813Z,12.40
2022-10-02T20:13:37.429Z,12.30
2022-10-02T20:16:31.797Z,12.40
2022-10-02T20:19:00.897Z,12.40
2022-10-02T20:21:37.578Z,12.40
2022-10-02T20:24:13.260Z,12.40
2022-10-02T20:26:41.987Z,12.40
2022-10-02T20:29:16.963Z,12.40
2022-10-02T20:31:50.095Z,12.40
2022-10-02T20:34:25.728Z,12.40
2022-10-02T20:36:59.909Z,12.40
2022-10-02T20:39:34.841Z,12.40
2022-10-02T20:42:10.588Z,12.30
2022-10-02T20:44:39.586Z,12.30
2022-10-02T20:47:47.078Z,12.30
2022-10-02T20:50:41.509Z,12.30
2022-10-02T20:53:37.160Z,12.30
2022-10-02T20:56:14.359Z,12.20
2022-10-02T20:59:13.277Z,12.20
2022-10-02T21:01:53.888Z,12.20
2022-10-02T21:04:53.393Z,12.20
2022-10-02T21:07:37.242Z,12.30
2022-10-02T21:10:29.456Z,12.20
2022-10-02T21:13:19.159Z,12.20
2022-10-02T21:16:27.136Z,12.20
2022-10-02T21:19:13.097Z,12.20
2022-10-02T21:22:06.928Z,12.20
2022-10-02T21:25:19.869Z,12.20
2022-10-02T21:28:46.427Z,12.20
2022-10-02T21:31:39.434Z,12.20
2022-10-02T21:34:22.745Z,12.20
2022-10-02T21:36:58.538Z,12.10
2022-10-02T21:40:08.144Z,12.20
2022-10-02T21:43:18.146Z,12.20
2022-10-02T21:46:11.535Z,12.10
2022-10-02T21:49:26.508Z,12.20
2022-10-02T21:52:21.995Z,12.10
2022-10-02T21:55:27.122Z,12.10
2022-10-02T21:58:30.232Z,12.10
2022-10-02T22:01:28.049Z,12.10
2022-10-02T22:04:19.318Z,12.20
2022-10-02T22:06:57.747Z,12.20
2022-10-02T22:09:42.717Z,12.20
2022-10-02T22:12:27.932Z,12.20
2022-10-02T22:15:09.374Z,12.20
2022-10-02T22:17:49.221Z,12.10
2022-10-02T22:20:43.233Z,12.20
2022-10-02T22:23:24.919Z,12.20
2022-10-02T22:26:04.635Z,12.20
2022-10-02T22:28:40.526Z,12.20
2022-10-02T22:31:26.901Z,12.20
2022-10-02T22:34:08.554Z,12.20
2022-10-02T22:36:57.202Z,12.20
2022-10-02T22:39:31.465Z,12.20
2022-10-02T22:42:07.014Z,12.20
2022-10-02T22:44:41.531Z,12.20
2022-10-02T22:47:15.226Z,12.10
2022-10-02T22:49:49.261Z,12.10
2022-10-02T22:52:22.440Z,12.00
2022-10-02T22:54:58.875Z,12.00
2022-10-02T22:57:37.179Z,12.00
2022-10-02T23:00:16.094Z,12.00
2022-10-02T23:02:51.485Z,11.90
2022-10-02T23:05:29.660Z,11.90
2022-10-02T23:08:03.040Z,11.90
2022-10-02T23:10:36.071Z,11.90
2022-10-02T23:13:15.353Z,11.90
2022-10-02T23:15:57.708Z,11.80
2022-10-02T23:18:39.583Z,11.80
2022-10-02T23:21:24.583Z,11.70
2022-10-02T23:23:58.256Z,11.80
2022-10-02T23:26:34.894Z,11.70
2022-10-02T23:29:19.799Z,11.60
2022-10-02T23:31:56.452Z,11.60
2022-10-02T23:34:38.411Z,11.50
2022-10-02T23:37:17.316Z,11.50
2022-10-02T23:39:53.139Z,11.50
2022-10-02T23:42:27.790Z,11.50
2022-10-02T23:45:00.869Z,11.40
2022-10-02T23:47:37.736Z,11.30
2022-10-02T23:50:21.636Z,11.30
2022-10-02T23:53:02.157Z,11.30
2022-10-02T23:55:44.817Z,11.30
2022-10-02T23:58:32.928Z,11.30
